Time;durP1;ratioP1;P1;durP2;ratioP2;P2;SDS_P1;SDS_P2;PMS_P1;PMS_P2;Temp;Humidity;BMP_temperature;BMP_pressure;BME280_temperature;BME280_humidity;BME280_pressure;Samples;Min_cycle;Max_cycle;Signal;HPM_P1;HPM_P2
2021/04/15 00:01:10;;;;;;;4.37;2.53;;;2.00;99.90;;;;;;4156547;28;20380;-65
2021/04/15 00:03:17;;;;;;;2.70;2.00;;;2.10;99.90;;;;;;4156708;28;20356;-64
2021/04/15 00:05:27;;;;;;;3.00;2.70;;;2.00;99.90;;;;;;4156585;28;20662;-66
2021/04/15 00:07:28;;;;;;;4.17;3.13;;;2.10;99.90;;;;;;4156893;28;20287;-65
2021/04/15 00:09:29;;;;;;;3.73;2.53;;;2.10;99.90;;;;;;4156424;28;20255;-65
2021/04/15 00:11:33;;;;;;;2.60;2.40;;;2.00;99.90;;;;;;4157100;28;20258;-66
2021/04/15 00:13:38;;;;;;;3.97;2.07;;;2.00;99.90;;;;;;4156838;28;20270;-66
2021/04/15 00:15:39;;;;;;;12.73;6.33;;;2.10;99.90;;;;;;4155998;28;20282;-68
2021/04/15 00:17:40;;;;;;;6.53;4.00;;;2.10;99.90;;;;;;4156881;28;20275;-65
2021/04/15 00:19:41;;;;;;;3.43;2.50;;;2.00;99.90;;;;;;4155687;28;20270;-66
2021/04/15 00:21:42;;;;;;;2.93;2.20;;;2.00;99.90;;;;;;4157221;28;20275;-67
2021/04/15 00:23:44;;;;;;;3.73;3.00;;;2.00;99.90;;;;;;4156459;28;20251;-66
2021/04/15 00:25:45;;;;;;;4.53;2.87;;;2.00;99.90;;;;;;4156665;28;20360;-68
2021/04/15 00:27:46;;;;;;;3.07;2.27;;;2.00;99.90;;;;;;4155592;28;20316;-66
2021/04/15 00:29:47;;;;;;;3.17;2.17;;;2.00;99.90;;;;;;4156795;28;20353;-65
2021/04/15 00:31:49;;;;;;;2.97;2.20;;;1.90;99.90;;;;;;4155454;28;20601;-66
2021/04/15 00:33:50;;;;;;;5.27;2.30;;;1.90;99.90;;;;;;4155454;28;20287;-66
2021/04/15 00:35:51;;;;;;;4.07;2.43;;;1.90;99.90;;;;;;4155698;28;20344;-66
2021/04/15 00:37:53;;;;;;;2.50;2.30;;;1.90;99.90;;;;;;4157348;28;20271;-66
2021/04/15 00:39:54;;;;;;;2.27;1.70;;;1.90;99.90;;;;;;4155890;28;20275;-65
2021/04/15 00:41:55;;;;;;;2.83;2.07;;;1.90;99.90;;;;;;4158601;28;20263;-67
2021/04/15 00:43:56;;;;;;;2.00;1.80;;;1.80;99.90;;;;;;4158996;28;20970;-69
2021/04/15 00:46:00;;;;;;;3.33;2.37;;;1.80;99.90;;;;;;4144345;28;20283;-66
2021/04/15 00:48:26;;;;;;;3.20;2.20;;;1.80;99.90;;;;;;4160202;28;20267;-66
2021/04/15 00:50:33;;;;;;;2.73;2.13;;;1.80;99.90;;;;;;4159316;28;20287;-66
2021/04/15 00:52:43;;;;;;;2.67;2.00;;;1.70;99.90;;;;;;4159577;28;21036;-70
2021/04/15 00:55:00;;;;;;;3.30;2.10;;;1.70;99.90;;;;;;4159167;28;20600;-69
2021/04/15 00:57:05;;;;;;;3.10;2.53;;;1.70;99.90;;;;;;4158808;28;20333;-70
2021/04/15 00:59:07;;;;;;;2.97;2.53;;;1.70;99.90;;;;;;4159024;28;20329;-69
2021/04/15 01:01:09;;;;;;;4.93;3.57;;;1.70;99.90;;;;;;4159598;28;20305;-66
2021/04/15 01:03:11;;;;;;;2.90;2.13;;;1.60;99.90;;;;;;4158829;28;20345;-69
2021/04/15 01:05:23;;;;;;;5.90;4.07;;;1.60;99.90;;;;;;4159876;28;20267;-70
2021/04/15 01:07:25;;;;;;;4.33;3.03;;;1.60;99.90;;;;;;4158325;28;20741;-67
2021/04/15 01:09:26;;;;;;;6.37;3.77;;;1.60;99.90;;;;;;4159612;28;20317;-69
2021/04/15 01:12:08;;;;;;;4.93;3.27;;;1.60;99.90;;;;;;4158481;28;20336;-67
2021/04/15 01:14:30;;;;;;;3.40;2.53;;;1.60;99.90;;;;;;4142993;28;20279;-69
2021/04/15 01:17:03;;;;;;;3.30;2.50;;;1.60;99.90;;;;;;4142954;28;20739;-69
2021/04/15 01:19:13;;;;;;;4.93;3.07;;;1.60;99.90;;;;;;4152088;28;21209;-69
2021/04/15 01:21:41;;;;;;;5.03;2.97;;;1.60;99.90;;;;;;4159693;28;20603;-67
2021/04/15 01:23:49;;;;;;;2.30;2.10;;;1.60;99.90;;;;;;4158342;28;20298;-66
2021/04/15 01:26:01;;;;;;;2.13;1.80;;;1.70;99.90;;;;;;4159329;28;20360;-64
2021/04/15 01:28:31;;;;;;;1.93;1.77;;;1.60;99.90;;;;;;4157984;28;20352;-66
2021/04/15 01:30:35;;;;;;;2.40;1.90;;;1.60;99.90;;;;;;4159369;28;20337;-66
2021/04/15 01:32:38;;;;;;;2.10;1.67;;;1.60;99.90;;;;;;4158105;28;20308;-66
2021/04/15 01:34:45;;;;;;;2.63;2.10;;;1.60;99.90;;;;;;4159164;28;20392;-65
2021/04/15 01:36:55;;;;;;;2.50;2.00;;;1.70;99.90;;;;;;4158242;28;20285;-65
2021/04/15 01:39:07;;;;;;;3.50;2.17;;;1.70;99.90;;;;;;4159541;28;20436;-65
2021/04/15 01:41:08;;;;;;;;;;;1.70;99.90;;;;;;4158449;28;20045;-65
2021/04/15 01:43:16;;;;;;;;;;;1.70;99.90;;;;;;4159880;28;19917;-65
2021/04/15 01:45:18;;;;;;;2.57;1.70;;;1.70;99.90;;;;;;4157593;28;20344;-66
2021/04/15 01:47:27;;;;;;;2.40;1.80;;;1.60;99.90;;;;;;4157657;28;20636;-67
2021/04/15 01:49:33;;;;;;;2.77;2.10;;;1.60;99.90;;;;;;4155884;28;21187;-66
2021/04/15 01:51:43;;;;;;;4.23;2.20;;;1.60;99.90;;;;;;4158929;28;20258;-66
2021/04/15 01:53:56;;;;;;;2.53;2.05;;;1.70;99.90;;;;;;4156266;28;20271;-66
2021/04/15 01:56:07;;;;;;;2.57;1.83;;;1.70;99.90;;;;;;4158848;28;20037;-66
2021/04/15 01:58:18;;;;;;;3.83;2.13;;;1.60;99.90;;;;;;4157718;28;20263;-65
2021/04/15 02:00:25;;;;;;;2.78;1.90;;;1.60;99.90;;;;;;4159264;28;20266;-65
2021/04/15 02:02:40;;;;;;;3.37;2.33;;;1.60;99.90;;;;;;4157555;28;20111;-64
2021/04/15 02:04:52;;;;;;;3.40;2.40;;;1.60;99.90;;;;;;4159001;28;20283;-66
2021/04/15 02:07:00;;;;;;;2.80;2.00;;;1.60;99.90;;;;;;4157223;28;20279;-66
2021/04/15 02:09:07;;;;;;;4.17;2.40;;;1.70;99.90;;;;;;4158645;28;20292;-66
2021/04/15 02:11:29;;;;;;;3.00;2.60;;;1.70;99.90;;;;;;4157293;28;20270;-67
2021/04/15 02:13:33;;;;;;;2.53;2.20;;;1.70;99.90;;;;;;4142309;28;20330;-67
2021/04/15 02:15:46;;;;;;;3.23;2.70;;;1.70;99.90;;;;;;4147062;28;20739;-65
2021/04/15 02:17:48;;;;;;;3.73;2.60;;;1.70;99.90;;;;;;4159416;28;20336;-65
2021/04/15 02:19:54;;;;;;;2.90;2.40;;;1.70;99.90;;;;;;4157264;28;20275;-64
2021/04/15 02:22:09;;;;;;;4.73;2.80;;;1.70;99.90;;;;;;4158265;28;20321;-66
2021/04/15 02:24:18;;;;;;;2.57;2.23;;;1.70;99.90;;;;;;4157804;28;20286;-66
2021/04/15 02:26:31;;;;;;;3.10;2.33;;;1.70;99.90;;;;;;4158703;28;20351;-66
2021/04/15 02:28:46;;;;;;;3.43;2.77;;;1.70;99.90;;;;;;4156977;28;20294;-65
2021/04/15 02:30:56;;;;;;;4.00;2.37;;;1.70;99.90;;;;;;4157223;28;20767;-66
2021/04/15 02:33:14;;;;;;;3.73;2.80;;;1.60;99.90;;;;;;4156808;28;20291;-65
2021/04/15 02:35:23;;;;;;;4.70;2.67;;;1.70;99.90;;;;;;4156573;28;20290;-65
2021/04/15 02:37:35;;;;;;;3.73;2.63;;;1.70;99.90;;;;;;4156989;28;20758;-65
2021/04/15 02:39:42;;;;;;;3.90;2.70;;;1.60;99.90;;;;;;4158597;28;20344;-65
2021/04/15 02:41:47;;;;;;;3.27;2.63;;;1.60;99.90;;;;;;4157613;28;20267;-64
2021/04/15 02:44:12;;;;;;;2.37;2.07;;;1.60;99.90;;;;;;4157715;28;20295;-64
2021/04/15 02:46:17;;;;;;;4.30;2.80;;;1.60;99.90;;;;;;4156470;28;20286;-63
2021/04/15 02:48:28;;;;;;;3.70;2.83;;;1.60;99.90;;;;;;4157965;28;20274;-63
2021/04/15 02:50:30;;;;;;;3.90;3.10;;;1.60;99.90;;;;;;4156956;28;20329;-67
2021/04/15 02:52:37;;;;;;;4.87;2.60;;;1.60;99.90;;;;;;4157868;28;20045;-64
2021/04/15 02:54:48;;;;;;;4.27;3.10;;;1.60;99.90;;;;;;4156579;28;20328;-65
2021/04/15 02:57:09;;;;;;;3.47;2.60;;;1.60;99.90;;;;;;4158004;28;20341;-66
2021/04/15 02:59:25;;;;;;;3.58;2.58;;;1.60;99.90;;;;;;4139106;28;20283;-68
2021/04/15 03:01:36;;;;;;;2.93;2.40;;;1.60;99.90;;;;;;4151267;28;20131;-65
2021/04/15 03:03:41;;;;;;;3.30;2.28;;;1.60;99.90;;;;;;4156544;28;20290;-67
2021/04/15 03:05:53;;;;;;;3.80;2.30;;;1.60;99.90;;;;;;4156337;28;20493;-64
2021/04/15 03:07:59;;;;;;;3.37;2.53;;;1.60;99.90;;;;;;4156789;28;20324;-66
2021/04/15 03:10:01;;;;;;;3.93;2.77;;;1.60;99.90;;;;;;4157809;28;20262;-65
2021/04/15 03:12:18;;;;;;;3.00;2.43;;;1.60;99.90;;;;;;4155500;28;20666;-65
2021/04/15 03:14:25;;;;;;;3.87;2.50;;;1.60;99.90;;;;;;4157850;28;20267;-67
2021/04/15 03:16:33;;;;;;;3.43;2.50;;;1.60;99.90;;;;;;4156325;28;20283;-66
2021/04/15 03:18:53;;;;;;;4.90;2.60;;;1.60;99.90;;;;;;4157860;28;20320;-66
2021/04/15 03:21:07;;;;;;;3.97;2.70;;;1.60;99.90;;;;;;4156195;28;20301;-64
2021/04/15 03:23:11;;;;;;;3.47;2.40;;;1.60;99.90;;;;;;4157437;28;20553;-66
2021/04/15 03:25:13;;;;;;;3.33;2.53;;;1.50;99.90;;;;;;4156632;28;21100;-66
2021/04/15 03:27:22;;;;;;;3.17;2.73;;;1.50;99.90;;;;;;4157405;28;20287;-63
2021/04/15 03:29:29;;;;;;;6.63;2.90;;;1.50;99.90;;;;;;4156223;28;20313;-65
2021/04/15 03:31:34;;;;;;;3.13;2.10;;;1.50;99.90;;;;;;4153085;28;20685;-66
2021/04/15 03:33:58;;;;;;;3.50;2.77;;;1.50;99.90;;;;;;4156372;28;20325;-66
2021/04/15 03:36:23;;;;;;;3.50;2.57;;;1.50;99.90;;;;;;4157449;28;20327;-65
2021/04/15 03:38:29;;;;;;;3.70;2.90;;;1.50;99.90;;;;;;4155932;28;20287;-68
2021/04/15 03:40:32;;;;;;;2.53;2.33;;;1.50;99.90;;;;;;4157520;28;20332;-68
2021/04/15 03:42:47;;;;;;;4.60;2.70;;;1.50;99.90;;;;;;4156004;28;20272;-68
2021/04/15 03:44:53;;;;;;;2.90;2.53;;;1.50;99.90;;;;;;4157376;28;20693;-68
2021/04/15 03:47:04;;;;;;;3.47;2.43;;;1.50;99.90;;;;;;4155744;28;20316;-69
2021/04/15 03:49:25;;;;;;;4.43;2.47;;;1.50;99.90;;;;;;4157645;28;20340;-67
2021/04/15 03:51:49;;;;;;;5.30;3.20;;;1.50;99.90;;;;;;4156132;28;20282;-69
2021/04/15 03:53:59;;;;;;;3.73;2.50;;;1.50;99.90;;;;;;4144339;28;20328;-66
2021/04/15 03:56:03;;;;;;;;;;;1.50;99.90;;;;;;4156487;28;20286;-65
2021/04/15 03:58:09;;;;;;;3.20;2.53;;;1.60;99.90;;;;;;4157383;28;20043;-65
2021/04/15 04:00:19;;;;;;;4.43;2.80;;;1.60;99.90;;;;;;4154961;28;20279;-65
2021/04/15 04:02:41;;;;;;;4.87;3.03;;;1.70;99.90;;;;;;4158642;28;20279;-66
2021/04/15 04:04:51;;;;;;;3.43;2.50;;;1.80;99.90;;;;;;4155066;28;20317;-64
2021/04/15 04:06:54;;;;;;;3.20;2.47;;;1.80;99.90;;;;;;4155011;28;20668;-65
2021/04/15 04:09:03;;;;;;;2.57;2.20;;;1.80;99.90;;;;;;4155498;28;20780;-66
2021/04/15 04:11:08;;;;;;;3.00;2.17;;;1.80;99.90;;;;;;4156816;28;20266;-66
2021/04/15 04:13:27;;;;;;;3.67;2.67;;;1.70;99.90;;;;;;4155723;28;20263;-68
2021/04/15 04:15:33;;;;;;;2.90;2.07;;;1.70;99.90;;;;;;4142998;28;20309;-66
2021/04/15 04:18:02;;;;;;;3.17;2.50;;;1.70;99.90;;;;;;4158355;28;20677;-66
2021/04/15 04:20:06;;;;;;;3.23;2.77;;;1.70;99.90;;;;;;4160203;28;20341;-67
2021/04/15 04:22:15;;;;;;;3.47;2.67;;;1.60;99.90;;;;;;4158717;28;20904;-62
2021/04/15 04:24:22;;;;;;;3.30;2.63;;;1.60;99.90;;;;;;4143193;28;20708;-66
2021/04/15 04:26:34;;;;;;;3.07;2.37;;;1.60;99.90;;;;;;4142612;28;20279;-65
2021/04/15 04:28:44;;;;;;;4.27;2.37;;;1.60;99.90;;;;;;4143908;28;20275;-65
2021/04/15 04:30:51;;;;;;;3.30;2.25;;;1.70;99.90;;;;;;4143055;28;20279;-66
2021/04/15 04:33:02;;;;;;;3.03;1.97;;;1.70;99.90;;;;;;4143267;28;20084;-67
2021/04/15 04:35:07;;;;;;;2.90;2.20;;;1.70;99.90;;;;;;4141644;28;20341;-65
2021/04/15 04:37:13;;;;;;;5.07;2.93;;;1.70;99.90;;;;;;4143430;28;20033;-65
2021/04/15 04:39:16;;;;;;;4.23;2.70;;;1.70;99.90;;;;;;4150406;28;20313;-66
2021/04/15 04:41:32;;;;;;;3.80;2.97;;;1.70;99.90;;;;;;4155741;28;20271;-65
2021/04/15 04:43:44;;;;;;;4.23;2.97;;;1.80;99.90;;;;;;4158266;28;20298;-64
2021/04/15 04:45:45;;;;;;;3.93;2.67;;;1.70;99.90;;;;;;4159751;28;20707;-65
2021/04/15 04:48:01;;;;;;;3.57;2.47;;;1.80;99.90;;;;;;4158229;28;20316;-64
2021/04/15 04:50:24;;;;;;;5.60;2.93;;;1.80;99.90;;;;;;4159766;28;20734;-63
2021/04/15 04:52:28;;;;;;;5.63;3.07;;;1.80;99.90;;;;;;4157995;28;20278;-65
2021/04/15 04:54:29;;;;;;;4.97;2.73;;;1.80;99.90;;;;;;4159927;28;20316;-66
2021/04/15 04:56:39;;;;;;;3.20;2.50;;;1.80;99.90;;;;;;4158751;28;20352;-63
2021/04/15 04:58:40;;;;;;;3.53;2.90;;;1.80;99.90;;;;;;4159440;28;20266;-66
2021/04/15 05:00:45;;;;;;;6.37;3.30;;;1.90;99.90;;;;;;4158476;28;20325;-66
2021/04/15 05:02:56;;;;;;;3.50;2.50;;;1.90;99.90;;;;;;4159137;28;20275;-63
2021/04/15 05:05:03;;;;;;;4.23;2.20;;;1.90;99.90;;;;;;4158363;28;20271;-64
2021/04/15 05:07:10;;;;;;;7.07;4.33;;;1.90;99.90;;;;;;4158911;28;20317;-66
2021/04/15 05:09:15;;;;;;;4.17;3.07;;;1.90;99.90;;;;;;4158352;28;20301;-66
2021/04/15 05:11:17;;;;;;;3.97;2.90;;;1.90;99.90;;;;;;4159767;28;20262;-68
2021/04/15 05:13:23;;;;;;;4.60;3.13;;;1.90;99.90;;;;;;4158261;28;20255;-69
2021/04/15 05:15:25;;;;;;;4.23;3.00;;;2.00;99.90;;;;;;4159351;28;20329;-63
2021/04/15 05:17:34;;;;;;;3.03;2.47;;;2.00;99.90;;;;;;4157711;28;20259;-68
2021/04/15 05:19:36;;;;;;;4.30;2.73;;;2.00;99.90;;;;;;4159762;28;21076;-68
2021/04/15 05:21:39;;;;;;;3.90;2.93;;;2.00;99.90;;;;;;4157596;28;20320;-67
2021/04/15 05:23:48;;;;;;;5.80;3.20;;;2.00;99.90;;;;;;4157466;28;20325;-64
2021/04/15 05:26:02;;;;;;;3.00;2.20;;;2.10;99.90;;;;;;4157326;28;20258;-65
2021/04/15 05:28:06;;;;;;;4.70;3.20;;;2.10;99.90;;;;;;4158733;28;20741;-61
2021/04/15 05:30:17;;;;;;;5.40;3.60;;;2.20;99.90;;;;;;4157532;28;21217;-64
2021/04/15 05:32:18;;;;;;;3.40;2.80;;;2.20;99.90;;;;;;4158921;28;20310;-65
2021/04/15 05:34:31;;;;;;;4.10;2.53;;;2.30;99.90;;;;;;4157640;28;20103;-63
2021/04/15 05:36:38;;;;;;;4.60;3.10;;;2.30;99.90;;;;;;4158893;28;20312;-64
2021/04/15 05:38:43;;;;;;;6.37;3.37;;;2.30;99.90;;;;;;4155977;28;20267;-64
2021/04/15 05:40:50;;;;;;;3.00;2.67;;;2.40;99.90;;;;;;4158309;28;20255;-68
2021/04/15 05:43:32;;;;;;;4.00;3.00;;;2.40;99.90;;;;;;4160288;28;20259;-67
2021/04/15 05:45:37;;;;;;;2.27;2.07;;;2.50;99.90;;;;;;4155006;28;20287;-64
2021/04/15 05:47:48;;;;;;;3.10;2.70;;;2.40;99.90;;;;;;4161435;28;20294;-64
2021/04/15 05:49:57;;;;;;;3.73;2.80;;;2.40;99.90;;;;;;4176242;28;20282;-72
2021/04/15 05:52:08;;;;;;;3.93;2.67;;;2.50;99.90;;;;;;4177394;28;20343;-66
2021/04/15 05:54:13;;;;;;;3.22;2.25;;;2.40;99.90;;;;;;4178831;28;20270;-65
2021/04/15 05:56:24;;;;;;;3.73;1.97;;;2.50;99.90;;;;;;4177604;28;20029;-66
2021/04/15 05:58:38;;;;;;;4.47;2.67;;;2.50;99.90;;;;;;4165412;28;20262;-68
2021/04/15 06:00:42;;;;;;;3.57;2.40;;;2.50;99.90;;;;;;4161417;28;20477;-67
2021/04/15 06:02:59;;;;;;;2.90;2.50;;;2.50;99.90;;;;;;4160991;28;20288;-63
2021/04/15 06:05:36;;;;;;;3.07;2.50;;;2.50;99.90;;;;;;4160400;28;20294;-65
2021/04/15 06:07:39;;;;;;;3.80;2.40;;;2.50;99.90;;;;;;4161964;28;20360;-66
2021/04/15 06:09:40;;;;;;;7.47;2.43;;;2.60;99.90;;;;;;4161340;28;20287;-67
2021/04/15 06:11:54;;;;;;;3.30;2.53;;;2.60;99.90;;;;;;4162567;28;20813;-63
2021/04/15 06:14:02;;;;;;;2.40;2.20;;;2.60;99.90;;;;;;4160426;28;20324;-66
2021/04/15 06:16:07;;;;;;;4.90;2.47;;;2.70;99.90;;;;;;4162473;28;20305;-66
2021/04/15 06:18:31;;;;;;;3.40;2.67;;;2.70;99.90;;;;;;4160159;28;20333;-63
2021/04/15 06:20:43;;;;;;;5.80;2.90;;;2.70;99.90;;;;;;4169829;28;20323;-64
2021/04/15 06:22:47;;;;;;;4.17;2.87;;;2.70;99.90;;;;;;4178274;28;20336;-64
2021/04/15 06:24:57;;;;;;;4.77;3.50;;;2.70;99.90;;;;;;4158943;28;20368;-64
2021/04/15 06:27:02;;;;;;;4.03;3.00;;;2.80;99.90;;;;;;4160452;28;20275;-63
2021/04/15 06:29:08;;;;;;;5.27;2.90;;;2.80;99.90;;;;;;4162260;28;20809;-61
2021/04/15 06:31:23;;;;;;;5.63;2.67;;;2.80;99.90;;;;;;4158558;28;20282;-65
2021/04/15 06:33:27;;;;;;;4.20;2.60;;;2.80;99.90;;;;;;4146006;28;20271;-67
2021/04/15 06:35:32;;;;;;;5.03;3.17;;;2.80;99.90;;;;;;4145672;28;20272;-64
2021/04/15 06:37:44;;;;;;;2.77;2.33;;;2.80;99.90;;;;;;4160811;28;20344;-65
2021/04/15 06:39:56;;;;;;;4.67;2.77;;;2.90;99.90;;;;;;4158523;28;20617;-64
2021/04/15 06:42:16;;;;;;;4.90;2.10;;;2.90;99.90;;;;;;4157849;28;20278;-64
2021/04/15 06:44:17;;;;;;;3.58;2.20;;;2.90;99.90;;;;;;4156738;28;20373;-62
2021/04/15 06:46:40;;;;;;;4.20;2.63;;;2.90;99.90;;;;;;4158310;28;20091;-63
2021/04/15 06:48:59;;;;;;;2.93;2.10;;;3.00;99.90;;;;;;4155274;28;20794;-62
2021/04/15 06:51:22;;;;;;;2.90;2.13;;;3.00;99.90;;;;;;4158242;28;20750;-64
2021/04/15 06:53:33;;;;;;;3.00;2.03;;;3.00;99.90;;;;;;4155435;28;21139;-64
2021/04/15 06:55:45;;;;;;;2.90;1.92;;;2.90;99.90;;;;;;4153464;28;20293;-64
2021/04/15 06:58:23;;;;;;;2.77;1.97;;;3.00;99.90;;;;;;4156942;28;20038;-62
2021/04/15 07:00:56;;;;;;;3.23;2.10;;;3.10;99.90;;;;;;4156397;28;20694;-64
2021/04/15 07:03:33;;;;;;;2.30;1.67;;;3.20;99.90;;;;;;4158417;28;20328;-62
2021/04/15 07:05:52;;;;;;;3.27;2.23;;;3.20;99.90;;;;;;4156990;28;20274;-64
2021/04/15 07:08:31;;;;;;;2.67;1.87;;;3.20;99.90;;;;;;4157728;28;20320;-66
2021/04/15 07:11:08;;;;;;;4.27;2.37;;;3.10;99.90;;;;;;4143978;28;20689;-64
2021/04/15 07:13:21;;;;;;;2.40;2.17;;;3.10;99.90;;;;;;4156779;28;20286;-64
2021/04/15 07:15:59;;;;;;;2.77;2.17;;;3.20;99.90;;;;;;4157403;28;20278;-64
2021/04/15 07:18:38;;;;;;;4.50;1.67;;;3.40;99.90;;;;;;4156395;28;20340;-66
2021/04/15 07:20:47;;;;;;;1.83;1.67;;;3.50;99.90;;;;;;4157609;28;20608;-64
2021/04/15 07:23:20;;;;;;;2.90;1.87;;;3.50;99.90;;;;;;4155889;28;20275;-64
2021/04/15 07:25:48;;;;;;;2.60;1.73;;;3.50;99.90;;;;;;4157278;28;20724;-65
2021/04/15 07:28:01;;;;;;;3.70;2.10;;;3.60;99.90;;;;;;4156346;28;20317;-64
2021/04/15 07:30:08;;;;;;;2.37;1.87;;;3.70;99.90;;;;;;4157723;28;20274;-64
2021/04/15 07:32:41;;;;;;;4.27;1.60;;;3.80;99.90;;;;;;4156490;28;20330;-66
2021/04/15 07:34:53;;;;;;;3.70;2.23;;;3.80;99.90;;;;;;4157305;28;20263;-64
2021/04/15 07:37:08;;;;;;;2.47;1.80;;;3.80;99.90;;;;;;4156940;28;20270;-65
2021/04/15 07:39:21;;;;;;;2.70;1.87;;;3.90;99.90;;;;;;4156628;28;20344;-64
2021/04/15 07:41:45;;;;;;;2.53;1.80;;;3.90;99.90;;;;;;4156822;28;20324;-67
2021/04/15 07:44:06;;;;;;;2.00;1.77;;;3.90;99.90;;;;;;4155954;28;20320;-65
2021/04/15 07:46:25;;;;;;;2.37;2.00;;;4.00;99.90;;;;;;4157319;28;20279;-64
2021/04/15 07:48:27;;;;;;;4.43;2.00;;;4.00;99.90;;;;;;4155073;28;20279;-64
2021/04/15 07:50:45;;;;;;;2.07;1.40;;;4.20;99.90;;;;;;4156962;28;20688;-67
2021/04/15 07:53:22;;;;;;;2.17;1.33;;;4.20;99.90;;;;;;4156023;28;20263;-64
2021/04/15 07:55:54;;;;;;;2.00;1.60;;;4.30;99.90;;;;;;4156482;28;20279;-66
2021/04/15 07:58:21;;;;;;;1.93;1.53;;;4.30;99.90;;;;;;4156250;28;20670;-64
2021/04/15 08:00:35;;;;;;;2.07;1.67;;;4.30;99.90;;;;;;4157222;28;20274;-65
2021/04/15 08:02:42;;;;;;;2.27;2.07;;;4.40;99.90;;;;;;4155845;28;20272;-64
2021/04/15 08:05:21;;;;;;;2.50;1.33;;;4.40;99.90;;;;;;4157239;28;20360;-66
2021/04/15 08:07:40;;;;;;;2.07;1.80;;;4.50;99.90;;;;;;4150392;28;20345;-66
2021/04/15 08:10:00;;;;;;;1.50;1.40;;;4.50;99.90;;;;;;4155934;28;21175;-63
2021/04/15 08:12:31;;;;;;;4.13;2.03;;;4.50;99.90;;;;;;4157021;28;20266;-67
2021/04/15 08:15:02;;;;;;;2.17;1.83;;;4.50;99.90;;;;;;4156214;28;20305;-68
2021/04/15 08:17:47;;;;;;;2.65;1.67;;;4.60;99.90;;;;;;4156618;28;21229;-64
2021/04/15 08:20:14;;;;;;;2.57;1.70;;;4.80;99.90;;;;;;4135788;28;20044;-66
2021/04/15 08:22:46;;;;;;;2.97;1.90;;;4.80;99.90;;;;;;4136632;28;20938;-68
2021/04/15 08:25:13;;;;;;;2.47;1.60;;;4.90;99.90;;;;;;4145602;28;20364;-64
2021/04/15 08:27:17;;;;;;;2.87;1.80;;;4.90;99.90;;;;;;4155957;28;20829;-63
2021/04/15 08:29:29;;;;;;;2.23;1.10;;;4.90;99.90;;;;;;4156449;28;21052;-63
2021/04/15 08:31:46;;;;;;;7.57;4.63;;;4.90;99.90;;;;;;4155671;28;20270;-65
2021/04/15 08:34:23;;;;;;;2.30;1.93;;;4.80;99.90;;;;;;4156377;28;20287;-65
2021/04/15 08:36:45;;;;;;;4.67;2.70;;;4.80;99.90;;;;;;4154952;28;20275;-64
2021/04/15 08:39:08;;;;;;;4.27;2.30;;;4.80;99.90;;;;;;4156548;28;21320;-65
2021/04/15 08:41:36;;;;;;;4.00;2.10;;;4.90;99.90;;;;;;4139449;28;20279;-65
2021/04/15 08:43:54;;;;;;;4.00;3.50;;;4.90;99.90;;;;;;4140086;28;20671;-64
2021/04/15 08:46:22;;;;;;;7.03;2.80;;;4.90;99.90;;;;;;4147648;28;20352;-63
2021/04/15 08:48:38;;;;;;;6.20;3.67;;;4.90;99.90;;;;;;4155241;28;20372;-65
2021/04/15 08:51:11;;;;;;;85.03;38.53;;;4.90;99.90;;;;;;4155563;28;20816;-64
2021/04/15 08:53:46;;;;;;;97.43;50.43;;;5.00;99.90;;;;;;4155044;28;20255;-62
2021/04/15 08:56:30;;;;;;;9.13;6.90;;;5.00;99.90;;;;;;4156592;28;20267;-63
2021/04/15 08:58:56;;;;;;;3.47;2.60;;;5.00;99.90;;;;;;4137386;28;20275;-66
2021/04/15 09:01:00;;;;;;;3.60;2.40;;;4.80;99.90;;;;;;4155191;28;20282;-65
2021/04/15 09:03:09;;;;;;;3.70;2.50;;;4.50;99.90;;;;;;4156914;28;20266;-67
2021/04/15 09:05:28;;;;;;;3.60;2.93;;;4.30;99.90;;;;;;4159013;28;20336;-65
2021/04/15 09:08:08;;;;;;;2.80;2.60;;;4.20;99.90;;;;;;4157748;28;20282;-61
2021/04/15 09:10:21;;;;;;;10.00;8.27;;;4.30;99.90;;;;;;4147046;28;20822;-64
2021/04/15 09:12:51;;;;;;;12.03;10.77;;;4.40;99.90;;;;;;4157935;28;20270;-65
2021/04/15 09:15:18;;;;;;;5.20;4.10;;;4.60;99.90;;;;;;4157291;28;20727;-65
2021/04/15 09:17:36;;;;;;;3.50;3.00;;;4.80;99.90;;;;;;4159385;28;20262;-62
2021/04/15 09:20:04;;;;;;;2.93;2.63;;;4.90;99.90;;;;;;4157525;28;20274;-66
2021/04/15 09:22:27;;;;;;;4.47;3.37;;;5.10;99.90;;;;;;4158995;28;21031;-63
2021/04/15 09:24:50;;;;;;;4.33;3.57;;;5.30;99.90;;;;;;4157886;28;20295;-65
2021/04/15 09:27:10;;;;;;;7.77;5.67;;;5.30;99.90;;;;;;4159031;28;20788;-64
2021/04/15 09:29:35;;;;;;;6.78;2.40;;;5.30;99.90;;;;;;4156161;28;20385;-64
2021/04/15 09:31:50;;;;;;;2.83;2.23;;;4.90;99.90;;;;;;4158167;28;20038;-65
2021/04/15 09:34:10;;;;;;;4.17;2.60;;;4.60;99.90;;;;;;4157979;28;20294;-65
2021/04/15 09:36:20;;;;;;;5.13;3.15;;;4.40;99.90;;;;;;4157870;28;20259;-64
2021/04/15 09:38:34;;;;;;;9.20;3.25;;;4.40;99.90;;;;;;4158159;28;20052;-63
2021/04/15 09:41:06;;;;;;;3.00;2.70;;;4.50;99.90;;;;;;4157927;28;20490;-63
2021/04/15 09:43:19;;;;;;;9.90;3.83;;;4.50;99.90;;;;;;4159224;28;20267;-66
2021/04/15 09:45:33;;;;;;;3.23;2.90;;;4.50;99.90;;;;;;4157413;28;20353;-65
2021/04/15 09:48:11;;;;;;;6.20;3.50;;;4.50;99.90;;;;;;4159310;28;20267;-63
2021/04/15 09:50:25;;;;;;;4.13;2.60;;;4.50;99.90;;;;;;4156729;28;20349;-63
2021/04/15 09:52:48;;;;;;;2.40;2.17;;;4.50;99.90;;;;;;4159121;28;20841;-64
2021/04/15 09:54:59;;;;;;;3.33;2.77;;;4.60;99.90;;;;;;4157980;28;20275;-64
2021/04/15 09:57:31;;;;;;;5.63;3.75;;;4.90;99.90;;;;;;4158198;28;20334;-64
2021/04/15 09:59:53;;;;;;;6.77;4.10;;;5.20;99.90;;;;;;4157252;28;20029;-65
2021/04/15 10:02:03;;;;;;;2.57;2.30;;;5.50;99.90;;;;;;4157391;28;20259;-66
2021/04/15 10:04:22;;;;;;;5.47;3.23;;;5.40;99.90;;;;;;4156830;28;20674;-64
2021/04/15 10:06:32;;;;;;;3.10;2.33;;;5.40;99.90;;;;;;4157055;28;20720;-63
2021/04/15 10:08:46;;;;;;;3.80;2.67;;;5.50;99.90;;;;;;4157743;28;20283;-64
2021/04/15 10:11:28;;;;;;;1.90;1.60;;;5.50;99.90;;;;;;4157322;28;20037;-64
2021/04/15 10:13:45;;;;;;;2.43;1.87;;;5.70;99.90;;;;;;4141493;28;20260;-64
2021/04/15 10:16:06;;;;;;;2.93;2.00;;;5.80;99.90;;;;;;4140686;28;20264;-66
2021/04/15 10:18:15;;;;;;;4.23;2.30;;;5.90;99.90;;;;;;4142162;28;21193;-64
2021/04/15 10:20:33;;;;;;;4.10;2.47;;;6.00;99.90;;;;;;4155541;28;20267;-63
2021/04/15 10:22:56;;;;;;;2.90;2.70;;;6.20;99.90;;;;;;4158633;28;20263;-63
2021/04/15 10:25:03;;;;;;;2.77;2.30;;;6.20;99.90;;;;;;4156721;28;20295;-65
2021/04/15 10:27:08;;;;;;;5.23;2.37;;;6.10;99.90;;;;;;4158017;28;20271;-65
2021/04/15 10:29:33;;;;;;;3.53;2.03;;;5.90;99.90;;;;;;4157079;28;20266;-65
2021/04/15 10:31:55;;;;;;;2.47;2.23;;;5.60;99.90;;;;;;4158370;28;20743;-63
2021/04/15 10:34:24;;;;;;;5.10;3.57;;;5.40;99.90;;;;;;4157005;28;20743;-64
2021/04/15 10:36:46;;;;;;;6.40;4.00;;;5.30;99.90;;;;;;4157932;28;20666;-65
2021/04/15 10:39:34;;;;;;;3.30;2.63;;;5.20;99.90;;;;;;4157861;28;20340;-64
2021/04/15 10:42:06;;;;;;;3.37;2.53;;;5.20;99.90;;;;;;4145125;28;20313;-68
2021/04/15 10:44:44;;;;;;;2.80;2.23;;;5.20;99.90;;;;;;4158587;28;20634;-69
2021/04/15 10:47:15;;;;;;;3.47;3.00;;;5.20;99.90;;;;;;4157665;28;20734;-67
2021/04/15 10:49:16;;;;;;;3.23;2.07;;;5.10;99.90;;;;;;4154437;28;20267;-68
2021/04/15 10:51:42;;;;;;;6.87;3.00;;;4.90;99.90;;;;;;4156068;28;20275;-67
2021/04/15 10:53:49;;;;;;;3.07;2.47;;;4.80;99.90;;;;;;4157327;28;20792;-68
2021/04/15 10:56:04;;;;;;;2.67;2.30;;;4.80;99.90;;;;;;4155311;28;20282;-66
2021/04/15 10:58:37;;;;;;;2.10;1.77;;;4.80;99.90;;;;;;4156171;28;20781;-68
2021/04/15 11:00:38;;;;;;;2.63;1.70;;;4.80;99.90;;;;;;4155858;28;20274;-65
2021/04/15 11:02:50;;;;;;;2.03;1.30;;;4.90;99.90;;;;;;4156158;28;20762;-67
2021/04/15 11:04:55;;;;;;;2.33;1.80;;;5.00;99.90;;;;;;4156571;28;20782;-66
2021/04/15 11:07:07;;;;;;;3.10;1.77;;;5.10;99.90;;;;;;4156022;28;20699;-70
2021/04/15 11:09:31;;;;;;;2.33;1.60;;;5.30;99.90;;;;;;4156496;28;20628;-68
2021/04/15 11:11:32;;;;;;;2.97;2.33;;;5.40;99.90;;;;;;4156344;28;20305;-66
2021/04/15 11:13:33;;;;;;;2.77;1.97;;;5.50;99.90;;;;;;4157096;28;20320;-66
2021/04/15 11:15:54;;;;;;;4.20;2.40;;;5.50;99.90;;;;;;4157147;28;20356;-67
2021/04/15 11:18:07;;;;;;;3.40;2.50;;;5.50;99.90;;;;;;4157121;28;20278;-64
2021/04/15 11:20:11;;;;;;;4.50;2.80;;;5.50;99.90;;;;;;4155665;28;20255;-63
2021/04/15 11:22:29;;;;;;;1.40;1.20;;;5.50;99.90;;;;;;4157390;28;20309;-63
2021/04/15 11:24:33;;;;;;;2.63;1.20;;;5.30;99.90;;;;;;4156277;28;20352;-63
2021/04/15 11:26:49;;;;;;;10.17;5.23;;;5.10;99.90;;;;;;4157053;28;20743;-66
2021/04/15 11:28:54;;;;;;;15.30;7.30;;;4.90;99.90;;;;;;4156288;28;20608;-64
2021/04/15 11:31:09;;;;;;;72.43;26.93;;;4.80;99.90;;;;;;4157186;28;20274;-63
2021/04/15 11:33:29;;;;;;;111.17;36.20;;;4.80;99.90;;;;;;4155404;28;20317;-63
2021/04/15 11:35:31;;;;;;;125.70;41.63;;;4.80;99.90;;;;;;4157187;28;20682;-63
2021/04/15 11:37:32;;;;;;;68.77;25.23;;;4.90;99.90;;;;;;4155473;28;20063;-66
2021/04/15 11:39:36;;;;;;;74.80;27.00;;;5.10;99.90;;;;;;4156744;28;20316;-63
2021/04/15 11:41:40;;;;;;;86.10;31.50;;;5.30;99.90;;;;;;4155714;28;20713;-63
2021/04/15 11:43:42;;;;;;;34.60;13.27;;;5.50;99.90;;;;;;4156159;28;20872;-62
2021/04/15 11:45:43;;;;;;;11.87;5.77;;;5.60;99.90;;;;;;4156502;28;20857;-62